Time;durP1;ratioP1;P1;durP2;ratioP2;P2;SDS_P1;SDS_P2;PMS_P1;PMS_P2;Temp;Humidity;BMP_temperature;BMP_pressure;BME280_temperature;BME280_humidity;BME280_pressure;Samples;Min_cycle;Max_cycle;Signal;HPM_P1;HPM_P2
2024/03/27 00:00:11;;;;;;;9.63;2.17;;;5.50;99.90;;;;;;5059807;28;20422;-63
2024/03/27 00:02:57;;;;;;;6.10;2.88;;;5.50;99.90;;;;;;5063529;28;20442;-63
2024/03/27 00:05:43;;;;;;;2.60;2.00;;;5.50;99.90;;;;;;5067339;28;20036;-63
2024/03/27 00:08:29;;;;;;;3.58;2.13;;;5.40;99.90;;;;;;5050201;28;20096;-63
2024/03/27 00:11:16;;;;;;;7.10;2.95;;;5.40;99.90;;;;;;5059256;28;20044;-63
2024/03/27 00:14:02;;;;;;;6.50;2.40;;;5.40;99.90;;;;;;5059232;28;20037;-63
2024/03/27 00:16:48;;;;;;;6.70;2.60;;;5.30;99.90;;;;;;5065450;28;20059;-63
2024/03/27 00:19:34;;;;;;;4.32;2.50;;;5.30;99.90;;;;;;5042459;28;20064;-63
2024/03/27 00:22:20;;;;;;;4.18;2.20;;;5.30;99.90;;;;;;5049557;28;20687;-63
2024/03/27 00:25:06;;;;;;;4.70;2.53;;;5.30;99.90;;;;;;5046516;28;20039;-63
2024/03/27 00:27:52;;;;;;;10.38;2.20;;;5.30;99.90;;;;;;5046759;28;20124;-63
2024/03/27 00:30:38;;;;;;;2.85;2.15;;;5.40;99.90;;;;;;5047490;28;20113;-63
2024/03/27 00:33:23;;;;;;;6.50;2.67;;;5.50;99.90;;;;;;5040096;28;20029;-63
2024/03/27 00:36:09;;;;;;;5.00;2.65;;;5.50;99.90;;;;;;5050019;28;20083;-63
2024/03/27 00:38:55;;;;;;;4.18;2.20;;;5.60;99.90;;;;;;5044024;28;20048;-63
2024/03/27 00:41:41;;;;;;;4.40;2.13;;;5.60;99.90;;;;;;5047103;28;20032;-63
2024/03/27 00:44:27;;;;;;;3.33;1.98;;;5.70;99.90;;;;;;5044517;28;20060;-63
2024/03/27 00:47:13;;;;;;;3.28;2.05;;;5.70;99.90;;;;;;5048960;28;20041;-63
2024/03/27 00:49:59;;;;;;;10.00;2.70;;;5.70;99.90;;;;;;5044560;28;20067;-63
2024/03/27 00:52:46;;;;;;;3.65;2.35;;;5.80;99.90;;;;;;5048200;28;20036;-62
2024/03/27 00:55:32;;;;;;;4.65;2.42;;;5.80;99.90;;;;;;5050071;28;20124;-62
2024/03/27 00:58:18;;;;;;;4.07;2.05;;;5.80;99.90;;;;;;5048356;28;20032;-63
2024/03/27 01:01:04;;;;;;;3.80;2.42;;;5.90;99.90;;;;;;5043747;28;20044;-63
2024/03/27 01:03:50;;;;;;;5.30;2.50;;;5.90;99.90;;;;;;5045755;28;20032;-63
2024/03/27 01:06:36;;;;;;;5.97;3.30;;;5.80;99.90;;;;;;5025611;28;20164;-63
2024/03/27 01:09:22;;;;;;;6.75;2.67;;;5.90;99.90;;;;;;5041542;28;20036;-63
2024/03/27 01:12:09;;;;;;;6.40;2.70;;;5.90;99.90;;;;;;5043408;28;20446;-63
2024/03/27 01:14:54;;;;;;;6.25;2.53;;;5.90;99.90;;;;;;5040295;28;20213;-63
2024/03/27 01:17:42;;;;;;;4.32;2.20;;;5.90;99.90;;;;;;5037957;28;20065;-63
2024/03/27 01:20:29;;;;;;;5.43;2.45;;;5.90;99.90;;;;;;5048084;28;20791;-63
2024/03/27 01:23:15;;;;;;;7.25;3.00;;;6.00;99.90;;;;;;5042159;28;20475;-63
2024/03/27 01:26:04;;;;;;;7.85;3.15;;;5.90;99.90;;;;;;5041902;28;20029;-63
2024/03/27 01:28:50;;;;;;;7.35;2.38;;;5.90;99.90;;;;;;5039044;28;20021;-63
2024/03/27 01:31:36;;;;;;;7.78;2.78;;;5.90;99.90;;;;;;5041382;28;20044;-63
2024/03/27 01:34:22;;;;;;;5.57;2.17;;;5.90;99.90;;;;;;5036644;28;20517;-63
2024/03/27 01:37:07;;;;;;;4.85;2.30;;;5.90;99.90;;;;;;5037411;28;20047;-63
2024/03/27 01:39:53;;;;;;;5.50;2.75;;;5.90;99.90;;;;;;5053848;28;20335;-63
2024/03/27 01:42:39;;;;;;;5.22;2.50;;;5.80;99.90;;;;;;5044061;28;20029;-62
2024/03/27 01:45:25;;;;;;;4.30;2.58;;;5.80;99.90;;;;;;5044149;28;20040;-63
2024/03/27 01:48:11;;;;;;;5.70;2.47;;;5.90;99.90;;;;;;5050240;28;20083;-62
2024/03/27 01:50:57;;;;;;;8.43;2.53;;;6.10;99.90;;;;;;5046899;28;20033;-63
2024/03/27 01:53:43;;;;;;;4.80;2.30;;;6.20;99.90;;;;;;5044610;28;20029;-62
2024/03/27 01:56:32;;;;;;;9.35;2.72;;;6.20;99.90;;;;;;5044233;28;20045;-63
2024/03/27 01:59:20;;;;;;;4.97;2.30;;;6.10;99.90;;;;;;5040535;28;20093;-63
2024/03/27 02:02:07;;;;;;;3.40;2.42;;;6.00;99.90;;;;;;5042717;28;20052;-63
2024/03/27 02:04:53;;;;;;;7.45;2.58;;;6.00;99.90;;;;;;5044936;28;20556;-62
2024/03/27 02:07:40;;;;;;;2.85;1.80;;;5.90;99.90;;;;;;5042807;28;20020;-63
2024/03/27 02:10:26;;;;;;;6.13;2.60;;;5.90;99.90;;;;;;5046268;28;20101;-63
2024/03/27 02:13:12;;;;;;;6.38;2.55;;;5.90;99.90;;;;;;5040778;28;20059;-63
2024/03/27 02:16:01;;;;;;;5.65;2.95;;;5.90;99.90;;;;;;5046368;28;20368;-63
2024/03/27 02:18:46;;;;;;;5.88;2.88;;;5.90;99.90;;;;;;5041103;28;20056;-63
2024/03/27 02:21:33;;;;;;;9.50;2.75;;;6.00;99.90;;;;;;5043818;28;20033;-62
2024/03/27 02:24:26;;;;;;;;;;;6.00;99.90;;;;;;5043385;28;20483;-62
2024/03/27 02:27:12;;;;;;;7.15;2.33;;;6.00;99.90;;;;;;5046010;28;20389;-63
2024/03/27 02:29:58;;;;;;;7.07;2.93;;;6.00;99.90;;;;;;5039031;28;20041;-62
2024/03/27 02:32:44;;;;;;;4.30;2.33;;;6.00;99.90;;;;;;5041197;28;20037;-63
2024/03/27 02:35:30;;;;;;;8.45;2.80;;;6.10;99.90;;;;;;5043611;28;20032;-63
2024/03/27 02:38:15;;;;;;;4.97;2.60;;;6.00;99.90;;;;;;5043808;28;20033;-62
2024/03/27 02:41:01;;;;;;;6.10;2.55;;;5.90;99.90;;;;;;5042525;28;20657;-62
2024/03/27 02:43:47;;;;;;;4.05;2.22;;;5.80;99.90;;;;;;5043359;28;20075;-63
2024/03/27 02:46:33;;;;;;;4.63;2.40;;;5.70;99.90;;;;;;5048158;28;20120;-63
2024/03/27 02:49:19;;;;;;;9.05;2.72;;;5.70;99.90;;;;;;5042307;28;20538;-63
2024/03/27 02:52:05;;;;;;;7.47;3.03;;;5.80;99.90;;;;;;5046716;28;20619;-63
2024/03/27 02:54:51;;;;;;;6.57;2.70;;;5.80;99.90;;;;;;5041840;28;20032;-63
2024/03/27 02:57:36;;;;;;;4.20;2.28;;;5.80;99.90;;;;;;5039317;28;20341;-63
2024/03/27 03:00:22;;;;;;;3.30;2.30;;;5.90;99.90;;;;;;5042308;28;20094;-62
2024/03/27 03:03:08;;;;;;;2.75;2.00;;;5.80;99.90;;;;;;5041727;28;20025;-63
2024/03/27 03:05:54;;;;;;;4.63;2.58;;;5.80;99.90;;;;;;5041131;28;20028;-63
2024/03/27 03:08:40;;;;;;;4.68;2.15;;;5.90;99.90;;;;;;5044880;28;20060;-63
2024/03/27 03:11:25;;;;;;;5.07;2.35;;;5.90;99.90;;;;;;5049959;28;20032;-63
2024/03/27 03:14:12;;;;;;;4.00;2.42;;;5.90;99.90;;;;;;5045860;28;20105;-63
2024/03/27 03:16:58;;;;;;;7.38;3.25;;;5.90;99.90;;;;;;5041299;28;20036;-63
2024/03/27 03:19:44;;;;;;;5.55;2.55;;;5.90;99.90;;;;;;5045034;28;20037;-63
2024/03/27 03:22:30;;;;;;;7.13;2.78;;;5.80;99.90;;;;;;5037575;28;20119;-63
2024/03/27 03:25:16;;;;;;;4.38;2.55;;;5.90;99.90;;;;;;5041259;28;20179;-62
2024/03/27 03:28:02;;;;;;;7.45;2.58;;;5.90;99.90;;;;;;5042734;28;20726;-62
2024/03/27 03:30:48;;;;;;;5.43;2.80;;;5.90;99.90;;;;;;5043313;28;20091;-62
2024/03/27 03:33:34;;;;;;;3.08;2.33;;;6.00;99.90;;;;;;5042354;28;20029;-63
2024/03/27 03:36:20;;;;;;;4.38;2.72;;;6.00;99.90;;;;;;5044985;28;20501;-63
2024/03/27 03:39:07;;;;;;;6.65;3.20;;;6.10;99.90;;;;;;5045499;28;20058;-63
2024/03/27 03:41:53;;;;;;;5.68;2.88;;;6.00;99.90;;;;;;5038135;28;20068;-63
2024/03/27 03:44:39;;;;;;;4.30;2.55;;;6.00;99.90;;;;;;5056569;22;20120;-61
2024/03/27 03:47:25;;;;;;;6.33;2.77;;;6.00;99.90;;;;;;5057621;28;20491;-61
2024/03/27 03:50:11;;;;;;;9.02;2.60;;;5.90;99.90;;;;;;5058910;28;20308;-61
2024/03/27 03:52:56;;;;;;;7.43;2.55;;;5.90;99.90;;;;;;5060327;28;20037;-61
2024/03/27 03:55:43;;;;;;;6.40;3.05;;;5.80;99.90;;;;;;5059362;28;20071;-61
2024/03/27 03:58:29;;;;;;;3.70;2.35;;;5.80;99.90;;;;;;5062203;28;20044;-61
2024/03/27 04:01:15;;;;;;;3.95;2.30;;;5.80;99.90;;;;;;5059190;28;20064;-61
2024/03/27 04:04:01;;;;;;;5.53;3.15;;;5.70;99.90;;;;;;5057294;28;20580;-61
2024/03/27 04:06:47;;;;;;;4.15;2.72;;;5.70;99.90;;;;;;5063500;28;20108;-61
2024/03/27 04:09:33;;;;;;;5.25;2.72;;;5.60;99.90;;;;;;5057986;28;20040;-61
2024/03/27 04:12:19;;;;;;;8.10;3.03;;;5.60;99.90;;;;;;5052569;28;20044;-61
2024/03/27 04:15:06;;;;;;;9.23;2.90;;;5.70;99.90;;;;;;5056213;28;20032;-61
2024/03/27 04:17:53;;;;;;;;;;;5.70;99.90;;;;;;5064575;28;20040;-61
2024/03/27 04:20:42;;;;;;;6.07;2.80;;;5.70;99.90;;;;;;5055388;28;19915;-61
2024/03/27 04:23:27;;;;;;;6.45;2.70;;;5.70;99.90;;;;;;5060783;28;20064;-61
2024/03/27 04:26:16;;;;;;;7.85;3.05;;;5.60;99.90;;;;;;5059432;28;20041;-61
2024/03/27 04:29:03;;;;;;;6.32;3.33;;;5.50;99.90;;;;;;5059586;28;20032;-60
2024/03/27 04:31:48;;;;;;;5.03;2.80;;;5.40;99.90;;;;;;5059804;28;20068;-61
2024/03/27 04:34:34;;;;;;;7.97;3.17;;;5.40;99.90;;;;;;5057747;28;20040;-61
2024/03/27 04:37:20;;;;;;;5.22;2.78;;;5.30;99.90;;;;;;5060756;28;20085;-61
2024/03/27 04:40:12;;;;;;;8.45;2.90;;;5.30;99.90;;;;;;5048938;28;20089;-61
2024/03/27 04:42:58;;;;;;;6.80;2.75;;;5.30;99.90;;;;;;5064837;28;20093;-61
2024/03/27 04:45:45;;;;;;;5.88;2.65;;;5.30;99.90;;;;;;5058960;28;20076;-61
2024/03/27 04:48:30;;;;;;;6.35;3.20;;;5.10;99.90;;;;;;5063683;28;20032;-61
2024/03/27 04:51:16;;;;;;;5.13;3.08;;;5.10;99.90;;;;;;5060800;28;20135;-61
2024/03/27 04:54:03;;;;;;;5.90;2.83;;;5.10;99.90;;;;;;5057344;28;20029;-60
2024/03/27 04:56:48;;;;;;;8.07;2.72;;;5.10;99.90;;;;;;5058417;28;20060;-61
2024/03/27 04:59:34;;;;;;;6.10;3.03;;;5.00;99.90;;;;;;5055807;28;20033;-61
2024/03/27 05:02:20;;;;;;;4.55;2.60;;;5.00;99.90;;;;;;5059678;28;20117;-61
2024/03/27 05:05:06;;;;;;;6.00;3.00;;;5.00;99.90;;;;;;5050979;28;20063;-60
2024/03/27 05:07:52;;;;;;;5.53;2.95;;;4.90;99.90;;;;;;5063871;28;20041;-61
2024/03/27 05:10:38;;;;;;;5.85;3.53;;;4.90;99.90;;;;;;5059694;28;20036;-61
2024/03/27 05:13:24;;;;;;;9.30;3.20;;;4.90;99.90;;;;;;5059635;28;20041;-61
2024/03/27 05:16:09;;;;;;;8.48;4.80;;;4.90;99.90;;;;;;5058416;28;20501;-61
2024/03/27 05:18:56;;;;;;;7.03;3.85;;;5.00;99.90;;;;;;5062019;28;20036;-61
2024/03/27 05:21:43;;;;;;;5.78;3.35;;;5.10;99.90;;;;;;5060126;28;20037;-61
2024/03/27 05:24:29;;;;;;;5.90;3.05;;;5.20;99.90;;;;;;5057626;28;20052;-61
2024/03/27 05:27:15;;;;;;;9.02;3.45;;;5.10;99.90;;;;;;5062933;28;20629;-61
2024/03/27 05:30:01;;;;;;;5.45;3.00;;;5.20;99.90;;;;;;5061872;28;20117;-61
2024/03/27 05:32:47;;;;;;;9.50;3.40;;;5.20;99.90;;;;;;5052778;28;20394;-61
2024/03/27 05:35:33;;;;;;;7.70;2.97;;;5.30;99.90;;;;;;5058306;28;20158;-61
2024/03/27 05:38:20;;;;;;;6.80;3.30;;;5.40;99.90;;;;;;5055858;28;20028;-61
2024/03/27 05:41:07;;;;;;;7.55;3.28;;;5.50;99.90;;;;;;5060307;28;20644;-61
2024/03/27 05:43:53;;;;;;;5.28;3.40;;;5.70;99.90;;;;;;5060698;28;20032;-62
2024/03/27 05:46:40;;;;;;;6.63;2.80;;;5.70;99.90;;;;;;5058265;28;20476;-62
2024/03/27 05:49:29;;;;;;;5.03;2.78;;;5.70;99.90;;;;;;5053566;28;20037;-62
2024/03/27 05:52:14;;;;;;;7.57;2.80;;;5.70;99.90;;;;;;5055502;28;20107;-62
2024/03/27 05:55:00;;;;;;;7.80;2.63;;;5.70;99.90;;;;;;5059133;28;20597;-62
2024/03/27 05:57:46;;;;;;;4.75;2.92;;;5.70;99.90;;;;;;5059918;28;20029;-62
2024/03/27 06:00:33;;;;;;;7.38;3.03;;;5.70;99.90;;;;;;5057555;28;20069;-62
2024/03/27 06:03:19;;;;;;;9.93;2.90;;;5.70;99.90;;;;;;5059029;28;20033;-62
2024/03/27 06:06:05;;;;;;;4.93;2.60;;;5.80;99.90;;;;;;5054112;28;20437;-62
2024/03/27 06:08:52;;;;;;;;;;;6.00;99.90;;;;;;5059210;28;20460;-62
2024/03/27 06:11:37;;;;;;;4.60;2.60;;;6.30;99.90;;;;;;5058222;28;19912;-62
2024/03/27 06:14:23;;;;;;;11.80;3.55;;;6.80;99.90;;;;;;5054317;28;20458;-62
2024/03/27 06:17:09;;;;;;;5.22;2.53;;;7.20;99.90;;;;;;5054526;28;20040;-62
2024/03/27 06:19:56;;;;;;;6.70;2.63;;;7.30;99.90;;;;;;5058568;28;20104;-62
2024/03/27 06:22:42;;;;;;;5.50;2.80;;;7.50;99.90;;;;;;5059749;28;20313;-62
2024/03/27 06:25:28;;;;;;;6.10;2.80;;;7.60;99.90;;;;;;5059380;28;20051;-62
2024/03/27 06:28:14;;;;;;;9.35;2.63;;;7.90;99.90;;;;;;5055777;28;20029;-62
2024/03/27 06:31:02;;;;;;;13.45;2.70;;;8.00;99.90;;;;;;5060793;28;20075;-62
2024/03/27 06:33:48;;;;;;;13.48;2.65;;;8.00;99.90;;;;;;5059325;28;20083;-62
2024/03/27 06:36:34;;;;;;;6.10;2.88;;;8.10;99.90;;;;;;5055294;28;20405;-62
2024/03/27 06:39:21;;;;;;;8.32;3.30;;;8.10;99.90;;;;;;5059755;28;20677;-62
2024/03/27 06:42:08;;;;;;;6.13;3.45;;;8.20;99.90;;;;;;5057782;28;20032;-62
2024/03/27 06:44:54;;;;;;;14.57;4.22;;;8.30;99.90;;;;;;5058767;28;20044;-62
2024/03/27 06:47:41;;;;;;;7.80;3.20;;;8.20;99.90;;;;;;5058637;28;20068;-62
2024/03/27 06:50:26;;;;;;;6.80;3.30;;;8.30;99.90;;;;;;5056194;28;20037;-62
2024/03/27 06:53:12;;;;;;;5.82;2.60;;;8.40;99.90;;;;;;5054501;28;20037;-62
2024/03/27 06:56:02;;;;;;;12.55;3.75;;;8.50;99.90;;;;;;5058328;28;20028;-62
2024/03/27 06:58:48;;;;;;;5.63;3.10;;;8.50;99.90;;;;;;5055925;28;20102;-62
2024/03/27 07:01:34;;;;;;;6.68;3.55;;;8.70;99.90;;;;;;5053695;28;20178;-62
2024/03/27 07:04:19;;;;;;;4.97;2.97;;;8.90;99.90;;;;;;5056500;28;20216;-62
2024/03/27 07:07:05;;;;;;;11.18;4.10;;;9.10;99.90;;;;;;5060213;28;20032;-62
2024/03/27 07:09:51;;;;;;;11.18;2.80;;;9.20;99.90;;;;;;5055082;28;20226;-62
2024/03/27 07:12:37;;;;;;;9.65;2.67;;;9.40;99.90;;;;;;5054002;28;20029;-62
2024/03/27 07:15:24;;;;;;;9.20;2.50;;;9.70;99.90;;;;;;5051528;28;20041;-62
2024/03/27 07:18:09;;;;;;;4.95;2.78;;;10.10;99.90;;;;;;5057176;28;20036;-62
2024/03/27 07:20:58;;;;;;;13.27;2.97;;;10.80;99.90;;;;;;5056600;28;20090;-62
2024/03/27 07:23:45;;;;;;;7.18;3.00;;;10.90;99.90;;;;;;5058812;28;20036;-62
2024/03/27 07:26:32;;;;;;;8.05;3.25;;;10.80;99.90;;;;;;5056643;28;20074;-62
2024/03/27 07:29:18;;;;;;;10.27;3.38;;;10.80;99.90;;;;;;5062143;28;20029;-62
2024/03/27 07:32:04;;;;;;;12.82;3.35;;;10.90;99.90;;;;;;5063215;28;20051;-62
2024/03/27 07:34:50;;;;;;;5.82;3.15;;;11.20;99.90;;;;;;5057399;28;20036;-62
2024/03/27 07:37:36;;;;;;;9.45;2.92;;;11.20;99.90;;;;;;5065505;28;20619;-62
2024/03/27 07:40:22;;;;;;;7.38;3.13;;;11.10;99.90;;;;;;5055199;28;20044;-62
2024/03/27 07:43:08;;;;;;;6.50;3.25;;;11.10;99.90;;;;;;5052734;28;20051;-62
2024/03/27 07:45:54;;;;;;;7.47;2.95;;;11.10;99.90;;;;;;5061820;28;20025;-62
2024/03/27 07:48:39;;;;;;;8.35;3.60;;;11.10;99.90;;;;;;5059351;28;20063;-62
2024/03/27 07:51:26;;;;;;;6.43;3.15;;;11.00;99.90;;;;;;5060874;28;20037;-62
2024/03/27 07:54:12;;;;;;;6.90;3.90;;;10.90;99.90;;;;;;5059126;28;20174;-62
2024/03/27 07:57:06;;;;;;;5.38;2.40;;;10.90;99.90;;;;;;5061184;28;20263;-62
2024/03/27 07:59:51;;;;;;;5.95;2.92;;;10.90;99.90;;;;;;5058274;28;20033;-62
2024/03/27 08:02:38;;;;;;;8.25;2.67;;;10.90;99.90;;;;;;5061603;28;20036;-62
2024/03/27 08:05:24;;;;;;;15.88;4.13;;;10.90;99.90;;;;;;5060324;28;20139;-62
2024/03/27 08:08:10;;;;;;;7.63;3.10;;;10.90;99.90;;;;;;5059156;28;20409;-62
2024/03/27 08:10:57;;;;;;;5.60;2.87;;;10.90;99.90;;;;;;5060579;28;20078;-62
2024/03/27 08:13:42;;;;;;;7.20;3.13;;;10.80;99.90;;;;;;5060912;28;20283;-62
2024/03/27 08:16:28;;;;;;;6.15;3.42;;;10.80;99.90;;;;;;5052949;28;20041;-62
2024/03/27 08:19:14;;;;;;;7.10;3.28;;;10.90;99.90;;;;;;5060348;28;20036;-62
2024/03/27 08:22:00;;;;;;;6.28;3.42;;;11.00;99.90;;;;;;5063774;28;20036;-62
2024/03/27 08:24:46;;;;;;;5.78;3.35;;;11.10;99.90;;;;;;5058956;28;20502;-62
2024/03/27 08:27:32;;;;;;;7.35;3.67;;;11.30;99.90;;;;;;5058169;28;20520;-62
2024/03/27 08:30:18;;;;;;;9.57;3.70;;;11.40;99.90;;;;;;5058269;28;20028;-62
2024/03/27 08:33:04;;;;;;;8.77;3.75;;;11.50;99.90;;;;;;5057753;28;20078;-62
2024/03/27 08:35:51;;;;;;;7.20;3.33;;;11.60;99.90;;;;;;5059477;28;20040;-62
2024/03/27 08:38:37;;;;;;;7.07;3.55;;;11.70;99.90;;;;;;5055116;28;20037;-62
2024/03/27 08:41:23;;;;;;;8.70;3.90;;;11.80;99.90;;;;;;5064777;28;20040;-62
2024/03/27 08:44:09;;;;;;;6.63;3.30;;;12.00;99.90;;;;;;5060311;28;20036;-62
2024/03/27 08:46:55;;;;;;;8.55;2.85;;;12.00;99.90;;;;;;5063727;28;20028;-62
2024/03/27 08:49:41;;;;;;;8.60;3.03;;;12.10;99.90;;;;;;5053384;28;20033;-62
2024/03/27 08:52:26;;;;;;;6.80;3.10;;;12.20;99.90;;;;;;5058499;28;20028;-62
2024/03/27 08:55:13;;;;;;;7.10;3.63;;;12.20;99.90;;;;;;5050878;28;21287;-62
2024/03/27 08:57:59;;;;;;;6.72;3.13;;;12.10;99.90;;;;;;5064777;28;20338;-62
2024/03/27 09:00:45;;;;;;;8.70;3.35;;;12.00;99.90;;;;;;5057284;28;20057;-62
2024/03/27 09:03:31;;;;;;;4.90;2.85;;;11.90;99.90;;;;;;5061693;28;20055;-62
2024/03/27 09:06:16;;;;;;;4.95;2.67;;;12.00;99.90;;;;;;5063653;28;20115;-62
2024/03/27 09:09:03;;;;;;;4.18;2.58;;;12.20;99.90;;;;;;5056918;28;20482;-62
2024/03/27 09:11:49;;;;;;;5.18;3.25;;;12.30;99.90;;;;;;5063367;28;20620;-62
2024/03/27 09:14:35;;;;;;;8.67;3.30;;;12.40;99.90;;;;;;5052411;28;20037;-62
2024/03/27 09:17:20;;;;;;;6.25;3.08;;;12.40;99.90;;;;;;5054594;28;20105;-62
2024/03/27 09:20:07;;;;;;;9.57;3.08;;;12.40;99.90;;;;;;5054242;28;20032;-62
2024/03/27 09:22:53;;;;;;;11.30;3.00;;;12.40;99.90;;;;;;5061579;28;21661;-62
2024/03/27 09:25:38;;;;;;;10.65;4.65;;;12.40;99.90;;;;;;5055175;28;20047;-62
2024/03/27 09:28:25;;;;;;;8.60;3.30;;;12.50;99.90;;;;;;5062391;28;20519;-62
2024/03/27 09:31:11;;;;;;;10.73;4.13;;;12.60;99.90;;;;;;5057714;28;20033;-62
2024/03/27 09:33:56;;;;;;;7.82;3.47;;;12.70;99.90;;;;;;5061838;28;20028;-62
2024/03/27 09:36:42;;;;;;;7.28;3.90;;;12.80;99.90;;;;;;5061502;28;20040;-62
2024/03/27 09:39:28;;;;;;;5.75;3.78;;;12.90;99.90;;;;;;5054810;28;20564;-62
2024/03/27 09:42:15;;;;;;;8.68;3.97;;;12.80;99.90;;;;;;5057112;28;20037;-62
2024/03/27 09:45:02;;;;;;;9.43;4.28;;;12.80;99.90;;;;;;5057287;28;21101;-62
2024/03/27 09:47:47;;;;;;;10.53;4.23;;;12.80;99.90;;;;;;5060465;28;20618;-62
2024/03/27 09:50:34;;;;;;;10.55;4.25;;;12.90;99.90;;;;;;5055598;28;20028;-62
2024/03/27 09:53:23;;;;;;;13.48;5.05;;;13.10;99.90;;;;;;5058171;28;20020;-62
2024/03/27 09:56:10;;;;;;;10.02;4.65;;;13.20;99.90;;;;;;5056858;28;20673;-62
2024/03/27 09:58:57;;;;;;;10.27;4.32;;;13.10;99.90;;;;;;5061467;28;20139;-62
2024/03/27 10:01:43;;;;;;;;;;;13.20;99.90;;;;;;5059391;28;20036;-62
2024/03/27 10:04:29;;;;;;;5.70;3.70;;;13.30;99.90;;;;;;5058670;28;19913;-62
2024/03/27 10:07:15;;;;;;;8.57;4.63;;;13.50;99.90;;;;;;5056255;28;20044;-62
2024/03/27 10:10:01;;;;;;;13.75;3.88;;;13.60;99.90;;;;;;5051130;28;20039;-62
2024/03/27 10:12:47;;;;;;;13.17;4.60;;;13.60;99.90;;;;;;5062386;28;20067;-62
2024/03/27 10:15:34;;;;;;;10.77;4.57;;;13.50;99.90;;;;;;5055614;28;20036;-62
2024/03/27 10:18:20;;;;;;;11.52;4.80;;;13.40;99.90;;;;;;5057533;28;20537;-62
2024/03/27 10:21:07;;;;;;;19.25;5.45;;;13.50;99.90;;;;;;5055737;28;20178;-62
2024/03/27 10:23:53;;;;;;;16.67;5.95;;;13.60;99.90;;;;;;5062306;28;20131;-62
2024/03/27 10:26:41;;;;;;;13.65;5.55;;;13.70;99.90;;;;;;5061515;28;20131;-62
2024/03/27 10:29:27;;;;;;;15.05;5.68;;;13.80;99.90;;;;;;5056327;28;20028;-62
2024/03/27 10:32:12;;;;;;;13.32;5.30;;;13.70;99.90;;;;;;5054776;28;20734;-62
2024/03/27 10:34:58;;;;;;;14.63;5.72;;;13.80;99.90;;;;;;5057372;28;20032;-62
2024/03/27 10:37:51;;;;;;;11.93;5.57;;;13.80;99.90;;;;;;5063430;28;20119;-62
2024/03/27 10:40:39;;;;;;;21.55;5.57;;;13.70;99.90;;;;;;5053650;28;20114;-62
2024/03/27 10:43:42;;;;;;;18.33;6.57;;;13.70;99.70;;;;;;5057592;28;20067;-62
2024/03/27 10:46:32;;;;;;;17.40;5.60;;;13.50;99.90;;;;;;5059956;28;20064;-62
2024/03/27 10:49:19;;;;;;;15.75;5.68;;;13.60;99.90;;;;;;5059214;28;20035;-62
2024/03/27 10:52:05;;;;;;;15.05;6.15;;;13.50;99.90;;;;;;5062047;28;20028;-62
2024/03/27 10:54:52;;;;;;;17.48;6.75;;;13.50;99.90;;;;;;5053943;28;20032;-62
2024/03/27 10:57:38;;;;;;;11.90;6.30;;;13.60;99.90;;;;;;5060173;28;20046;-62
2024/03/27 11:00:24;;;;;;;21.10;7.22;;;13.60;99.90;;;;;;5052923;28;20040;-62
2024/03/27 11:03:10;;;;;;;17.73;6.07;;;13.50;99.90;;;;;;5057118;28;20570;-63
2024/03/27 11:05:58;;;;;;;20.92;6.53;;;13.50;99.90;;;;;;5056155;28;20040;-62
2024/03/27 11:08:46;;;;;;;14.43;5.75;;;13.60;99.90;;;;;;5059958;28;20079;-62
2024/03/27 11:11:33;;;;;;;13.50;6.05;;;13.60;99.90;;;;;;5057736;28;20047;-62
2024/03/27 11:14:23;;;;;;;11.63;5.75;;;13.60;99.90;;;;;;5057059;28;20082;-62
2024/03/27 11:17:09;;;;;;;13.43;6.00;;;13.50;99.90;;;;;;5052918;28;20121;-62
2024/03/27 11:19:58;;;;;;;12.52;5.55;;;13.60;99.90;;;;;;5054430;28;20029;-62
2024/03/27 11:22:46;;;;;;;10.35;5.50;;;13.60;99.90;;;;;;5058611;28;20090;-62
2024/03/27 11:25:31;;;;;;;10.57;6.15;;;14.00;99.90;;;;;;5055906;28;20040;-62
2024/03/27 11:28:21;;;;;;;14.60;6.18;;;14.10;99.90;;;;;;5056070;28;20108;-62
2024/03/27 11:31:07;;;;;;;15.00;5.22;;;14.20;99.90;;;;;;5060735;28;20472;-62
2024/03/27 11:33:52;;;;;;;14.95;5.68;;;14.10;99.90;;;;;;5060412;28;20129;-62
2024/03/27 11:36:41;;;;;;;11.25;5.68;;;13.90;99.90;;;;;;5056267;28;20733;-62
2024/03/27 11:39:27;;;;;;;10.63;5.55;;;13.70;99.90;;;;;;5052984;28;20090;-62
2024/03/27 11:42:13;;;;;;;12.80;5.43;;;13.70;99.90;;;;;;5060187;28;20094;-62
2024/03/27 11:44:59;;;;;;;16.13;6.65;;;13.90;99.80;;;;;;5057606;28;20131;-62
2024/03/27 11:47:46;;;;;;;8.38;5.10;;;14.10;99.90;;;;;;5057916;28;20128;-62
2024/03/27 11:50:31;;;;;;;15.05;6.22;;;14.30;99.90;;;;;;5060360;28;20036;-62
2024/03/27 11:53:18;;;;;;;11.32;5.82;;;14.10;99.90;;;;;;5060401;28;20082;-62
2024/03/27 11:56:04;;;;;;;12.30;5.68;;;14.10;99.90;;;;;;5039763;28;20036;-62
2024/03/27 11:58:50;;;;;;;12.83;6.00;;;14.20;99.90;;;;;;5057441;28;20045;-62
2024/03/27 12:01:36;;;;;;;17.42;5.97;;;14.20;99.90;;;;;;5057035;28;20041;-62
2024/03/27 12:04:22;;;;;;;11.35;6.18;;;14.40;99.60;;;;;;5053423;28;20060;-62
2024/03/27 12:07:08;;;;;;;9.35;6.00;;;14.30;99.90;;;;;;5056396;28;20029;-62
2024/03/27 12:09:54;;;;;;;13.10;6.60;;;14.40;99.90;;;;;;5052688;28;20292;-62
2024/03/27 12:12:40;;;;;;;10.67;5.53;;;14.20;98.30;;;;;;5058903;28;20338;-62
2024/03/27 12:15:26;;;;;;;10.25;6.13;;;14.10;99.90;;;;;;5055319;28;20024;-62
2024/03/27 12:18:12;;;;;;;16.08;7.53;;;14.20;99.90;;;;;;5060061;28;20398;-62
2024/03/27 12:20:57;;;;;;;13.63;7.20;;;14.20;98.70;;;;;;5057054;28;20047;-63
2024/03/27 12:23:44;;;;;;;8.85;5.97;;;14.20;99.90;;;;;;5064214;28;20036;-62
2024/03/27 12:26:30;;;;;;;15.65;6.78;;;14.30;99.90;;;;;;5058702;28;20028;-62
2024/03/27 12:29:18;;;;;;;12.30;6.85;;;14.30;99.30;;;;;;5055934;28;20036;-62
2024/03/27 12:32:04;;;;;;;10.65;6.20;;;14.10;99.90;;;;;;5061504;28;20029;-62
2024/03/27 12:34:51;;;;;;;17.95;6.57;;;14.20;99.90;;;;;;5056533;28;20079;-62
2024/03/27 12:37:37;;;;;;;10.77;5.50;;;14.30;99.90;;;;;;5058488;28;20111;-62
2024/03/27 12:40:22;;;;;;;9.73;5.15;;;14.30;99.90;;;;;;5057527;28;20464;-62
2024/03/27 12:43:08;;;;;;;11.52;4.85;;;14.20;99.90;;;;;;5060020;28;20036;-62
2024/03/27 12:45:54;;;;;;;10.27;5.13;;;14.20;99.90;;;;;;5056902;28;20124;-62
2024/03/27 12:48:40;;;;;;;13.10;5.55;;;14.40;99.90;;;;;;5063001;28;20032;-62
2024/03/27 12:51:26;;;;;;;8.85;4.25;;;14.50;99.90;;;;;;5058631;28;20039;-62
2024/03/27 12:54:11;;;;;;;8.88;5.10;;;14.50;99.90;;;;;;5060132;28;20047;-62
2024/03/27 12:56:57;;;;;;;7.07;4.20;;;14.50;99.90;;;;;;5061485;28;20037;-62
2024/03/27 12:59:43;;;;;;;7.43;4.28;;;14.60;99.90;;;;;;5057822;28;20056;-62
2024/03/27 13:02:29;;;;;;;11.35;4.35;;;14.70;99.90;;;;;;5057509;28;20119;-62
2024/03/27 13:05:15;;;;;;;8.30;4.20;;;14.80;99.40;;;;;;5054750;28;20043;-62
2024/03/27 13:08:01;;;;;;;9.48;4.68;;;14.80;99.40;;;;;;5056909;28;20115;-62
2024/03/27 13:10:47;;;;;;;7.30;4.90;;;14.60;99.70;;;;;;5057151;28;20111;-62
2024/03/27 13:13:33;;;;;;;10.15;4.82;;;14.30;99.90;;;;;;5060604;28;20044;-62
2024/03/27 13:16:18;;;;;;;10.07;4.43;;;14.20;99.90;;;;;;5058351;28;20043;-62
2024/03/27 13:19:04;;;;;;;7.68;3.92;;;14.00;99.90;;;;;;5061954;28;20037;-62
2024/03/27 13:21:50;;;;;;;6.78;3.80;;;14.00;99.90;;;;;;5059620;28;20101;-62
2024/03/27 13:24:36;;;;;;;9.57;4.30;;;13.90;99.90;;;;;;5056614;28;20029;-62
2024/03/27 13:27:23;;;;;;;7.18;3.95;;;13.80;99.90;;;;;;5056057;28;20040;-62
2024/03/27 13:30:18;;;;;;;6.95;3.30;;;13.80;99.90;;;;;;5055633;28;20153;-62
2024/03/27 13:33:04;;;;;;;4.95;2.90;;;13.90;99.90;;;;;;5060345;28;20108;-62
2024/03/27 13:35:50;;;;;;;8.88;3.55;;;13.90;99.90;;;;;;5056602;28;20090;-62
2024/03/27 13:38:36;;;;;;;5.97;3.55;;;13.80;99.90;;;;;;5061083;28;20028;-61
2024/03/27 13:41:22;;;;;;;6.40;3.72;;;13.50;99.90;;;;;;5060203;28;20040;-63
2024/03/27 13:44:08;;;;;;;9.13;3.33;;;13.50;99.90;;;;;;5061349;28;20025;-62
2024/03/27 13:46:54;;;;;;;7.32;3.50;;;13.50;99.90;;;;;;5059372;28;20036;-62
2024/03/27 13:49:39;;;;;;;6.63;3.53;;;13.50;99.90;;;;;;5040580;28;20036;-62
2024/03/27 13:52:25;;;;;;;4.75;3.40;;;13.30;99.90;;;;;;5061558;28;20028;-62
2024/03/27 13:55:11;;;;;;;7.53;3.78;;;13.10;99.90;;;;;;5055380;28;20116;-62
2024/03/27 13:57:57;;;;;;;6.72;3.80;;;13.00;99.90;;;;;;5060136;28;20025;-62
2024/03/27 14:00:43;;;;;;;7.78;3.83;;;13.00;99.90;;;;;;5056750;28;20490;-62
2024/03/27 14:03:29;;;;;;;7.53;3.70;;;12.90;99.90;;;;;;5062012;28;20036;-62
2024/03/27 14:06:14;;;;;;;6.32;3.25;;;12.80;99.90;;;;;;5056408;28;20039;-62
2024/03/27 14:09:00;;;;;;;6.50;3.30;;;12.90;99.90;;;;;;5061443;28;20394;-62
2024/03/27 14:11:46;;;;;;;9.55;3.40;;;12.80;99.90;;;;;;5059452;28;20033;-62
2024/03/27 14:14:32;;;;;;;8.38;4.07;;;12.70;99.90;;;;;;5056696;28;20090;-62
2024/03/27 14:17:18;;;;;;;7.68;3.90;;;12.60;99.90;;;;;;5062158;28;20086;-62
2024/03/27 14:20:07;;;;;;;9.02;3.83;;;12.30;99.90;;;;;;5054822;28;20059;-62
2024/03/27 14:22:53;;;;;;;7.25;4.32;;;12.30;99.90;;;;;;5060196;28;20106;-62
2024/03/27 14:25:39;;;;;;;13.80;3.65;;;12.40;99.90;;;;;;5040723;28;20046;-62
2024/03/27 14:28:25;;;;;;;8.23;4.57;;;12.30;99.90;;;;;;5061174;28;20033;-62